Time,TemperatureF,DewpointF,PressureIn,WindDirection,WindDirectionDegrees,WindSpeedMPH,WindSpeedGustMPH,Humidity,HourlyPrecipIn,Conditions,Clouds,dailyrainin,SoftwareType,DateUTC
2013-02-16 00:05:00,70.6,65.2,30.07,ENE,64,7.0,7.0,83,0.00,,,0.00,Wunderground v.1.15,2013-02-16 10:05:00,
2013-02-16 00:15:00,70.8,65.4,30.08,East,79,7.0,11.0,83,0.00,,,0.00,Wunderground v.1.15,2013-02-16 10:15:00,
2013-02-16 00:20:00,71.0,65.2,30.08,East,99,8.0,17.0,82,0.00,,,0.00,Wunderground v.1.15,2013-02-16 10:20:00,
2013-02-16 00:30:00,71.2,65.8,30.08,East,95,7.0,7.0,83,0.00,,,0.00,Wunderground v.1.15,2013-02-16 10:30:00,
2013-02-16 00:40:00,70.8,64.7,30.08,ENE,66,7.0,7.0,81,0.00,,,0.00,Wunderground v.1.15,2013-02-16 10:40:00,
2013-02-16 00:50:00,70.2,64.4,30.08,East,91,8.0,8.0,82,0.00,,,0.00,Wunderground v.1.15,2013-02-16 10:50:00,
2013-02-16 00:55:00,69.6,64.2,30.08,NE,36,6.0,8.0,83,0.00,,,0.00,Wunderground v.1.15,2013-02-16 10:55:00,
2013-02-16 01:05:00,69.6,64.9,30.07,East,93,5.0,5.0,85,0.00,,,0.00,Wunderground v.1.15,2013-02-16 11:05:00,
2013-02-16 01:15:00,70.1,64.0,30.07,ESE,106,5.0,5.0,81,0.00,,,0.00,Wunderground v.1.15,2013-02-16 11:15:00,
2013-02-16 01:25:00,70.6,64.1,30.06,East,101,6.0,6.0,80,0.00,,,0.00,Wunderground v.1.15,2013-02-16 11:25:00,
2013-02-16 01:35:00,70.7,64.2,30.06,East,86,8.0,8.0,80,0.00,,,0.00,Wunderground v.1.15,2013-02-16 11:35:00,
2013-02-16 01:45:00,70.6,63.8,30.05,East,80,8.0,10.0,79,0.00,,,0.00,Wunderground v.1.15,2013-02-16 11:45:00,
2013-02-16 01:55:00,70.7,64.6,30.05,ESE,106,6.0,10.0,81,0.00,,,0.00,Wunderground v.1.15,2013-02-16 11:55:00,
2013-02-16 02:05:00,70.6,64.5,30.05,East,88,6.0,9.0,81,0.00,,,0.00,Wunderground v.1.15,2013-02-16 12:05:00,
2013-02-16 02:15:00,70.3,63.5,30.06,East,101,7.0,7.0,79,0.00,,,0.00,Wunderground v.1.15,2013-02-16 12:15:00,
2013-02-16 02:20:00,70.3,63.8,30.06,East,94,7.0,7.0,80,0.00,,,0.00,Wunderground v.1.15,2013-02-16 12:20:00,
2013-02-16 02:30:00,70.1,64.0,30.05,ENE,61,6.0,7.0,81,0.00,,,0.00,Wunderground v.1.15,2013-02-16 12:30:00,
2013-02-16 02:40:00,69.4,63.3,30.06,East,87,8.0,11.0,81,0.00,,,0.00,Wunderground v.1.15,2013-02-16 12:40:00,
2013-02-16 02:50:00,67.9,62.5,30.05,East,97,8.0,8.0,83,0.00,,,0.00,Wunderground v.1.15,2013-02-16 12:50:00,
2013-02-16 03:00:00,68.4,63.4,30.05,East,96,6.0,7.0,84,0.00,,,0.00,Wunderground v.1.15,2013-02-16 13:00:00,
2013-02-16 03:05:00,68.7,63.7,30.04,East,85,5.0,7.0,84,0.00,,,0.00,Wunderground v.1.15,2013-02-16 13:05:00,
2013-02-16 03:15:00,69.4,64.4,30.04,ENE,76,5.0,5.0,84,0.00,,,0.00,Wunderground v.1.15,2013-02-16 13:15:00,
2013-02-16 03:25:00,69.9,63.4,30.04,ESE,114,5.0,9.0,80,0.00,,,0.00,Wunderground v.1.15,2013-02-16 13:25:00,
2013-02-16 03:30:00,70.3,63.5,30.04,East,84,6.0,6.0,79,0.00,,,0.00,Wunderground v.1.15,2013-02-16 13:30:00,
2013-02-16 03:40:00,70.7,63.5,30.04,ENE,62,8.0,8.0,78,0.00,,,0.00,Wunderground v.1.15,2013-02-16 13:40:00,
2013-02-16 03:45:00,70.8,63.2,30.04,East,98,7.0,10.0,77,0.00,,,0.00,Wunderground v.1.15,2013-02-16 13:45:00,
2013-02-16 03:55:00,71.0,63.4,30.04,East,81,9.0,10.0,77,0.00,,,0.00,Wunderground v.1.15,2013-02-16 13:55:00,
2013-02-16 04:05:00,70.5,64.0,30.04,ENE,65,6.0,8.0,80,0.00,,,0.00,Wunderground v.1.15,2013-02-16 14:05:00,
2013-02-16 04:15:00,70.2,63.7,30.04,East,95,5.0,10.0,80,0.00,,,0.00,Wunderground v.1.15,2013-02-16 14:15:00,
2013-02-16 04:25:00,70.3,64.2,30.04,East,88,6.0,6.0,81,0.00,,,0.00,Wunderground v.1.15,2013-02-16 14:25:00,
2013-02-16 04:35:00,70.5,64.7,30.04,ENE,62,4.0,5.0,82,0.00,,,0.00,Wunderground v.1.15,2013-02-16 14:35:00,
2013-02-16 04:45:00,70.7,64.6,30.05,ENE,76,8.0,8.0,81,0.00,,,0.00,Wunderground v.1.15,2013-02-16 14:45:00,
2013-02-16 04:55:00,70.6,63.8,30.04,ESE,115,6.0,10.0,79,0.00,,,0.00,Wunderground v.1.15,2013-02-16 14:55:00,
2013-02-16 05:00:00,70.7,63.9,30.05,ENE,60,7.0,7.0,79,0.00,,,0.00,Wunderground v.1.15,2013-02-16 15:00:00,
2013-02-16 05:05:00,70.6,64.5,30.04,East,90,7.0,7.0,81,0.00,,,0.00,Wunderground v.1.15,2013-02-16 15:05:00,
2013-02-16 05:15:00,69.1,65.1,30.05,ENE,72,7.0,8.0,87,0.14,,,0.02,Wunderground v.1.15,2013-02-16 15:15:00,
2013-02-16 05:25:00,67.9,64.5,30.05,East,79,7.0,8.0,89,0.04,,,0.02,Wunderground v.1.15,2013-02-16 15:25:00,
2013-02-16 05:30:00,68.1,65.1,30.05,East,79,6.0,6.0,90,0.00,,,0.02,Wunderground v.1.15,2013-02-16 15:30:00,
2013-02-16 05:35:00,68.2,64.8,30.05,ENE,76,6.0,10.0,89,0.00,,,0.03,Wunderground v.1.15,2013-02-16 15:35:00,
2013-02-16 05:45:00,66.4,63.1,30.06,ENE,60,10.0,14.0,89,0.53,,,0.09,Wunderground v.1.15,2013-02-16 15:45:00,
2013-02-16 05:55:00,66.8,64.4,30.06,ESE,103,7.0,8.0,92,0.07,,,0.10,Wunderground v.1.15,2013-02-16 15:55:00,
2013-02-16 06:05:00,67.5,64.5,30.06,East,89,7.0,10.0,90,0.00,,,0.10,Wunderground v.1.15,2013-02-16 16:05:00,
2013-02-16 06:10:00,67.6,63.9,30.07,ENE,57,7.0,7.0,88,0.00,,,0.10,Wunderground v.1.15,2013-02-16 16:10:00,
2013-02-16 06:20:00,68.1,63.8,30.07,ENE,74,8.0,8.0,86,0.00,,,0.10,Wunderground v.1.15,2013-02-16 16:20:00,
2013-02-16 06:25:00,68.3,63.6,30.07,ENE,76,7.0,9.0,85,0.00,,,0.10,Wunderground v.1.15,2013-02-16 16:25:00,
2013-02-16 06:35:00,68.4,63.7,30.07,ENE,78,7.0,12.0,85,0.00,,,0.10,Wunderground v.1.15,2013-02-16 16:35:00,
2013-02-16 06:40:00,68.5,63.8,30.07,East,101,7.0,7.0,85,0.00,,,0.10,Wunderground v.1.15,2013-02-16 16:40:00,
2013-02-16 06:50:00,68.4,63.0,30.07,ENE,69,7.0,7.0,83,0.00,,,0.10,Wunderground v.1.15,2013-02-16 16:50:00,
2013-02-16 06:55:00,68.3,63.3,30.07,ENE,65,6.0,14.0,84,0.00,,,0.10,Wunderground v.1.15,2013-02-16 16:55:00,
2013-02-16 07:05:00,68.9,63.2,30.08,ENE,74,7.0,7.0,82,0.00,,,0.10,Wunderground v.1.15,2013-02-16 17:05:00,
2013-02-16 07:15:00,69.4,62.6,30.08,East,89,7.0,7.0,79,0.00,,,0.10,Wunderground v.1.15,2013-02-16 17:15:00,
2013-02-16 07:20:00,69.7,62.2,30.08,ENE,63,9.0,9.0,77,0.00,,,0.10,Wunderground v.1.15,2013-02-16 17:20:00,
2013-02-16 07:30:00,69.9,62.4,30.09,ENE,63,9.0,9.0,77,0.00,,,0.10,Wunderground v.1.15,2013-02-16 17:30:00,
2013-02-16 07:40:00,70.0,62.8,30.09,NE,41,7.0,7.0,78,0.00,,,0.10,Wunderground v.1.15,2013-02-16 17:40:00,
2013-02-16 07:50:00,70.1,62.9,30.10,NE,49,7.0,7.0,78,0.00,,,0.10,Wunderground v.1.15,2013-02-16 17:50:00,
2013-02-16 08:00:00,70.3,62.7,30.10,ENE,65,8.0,8.0,77,0.00,,,0.10,Wunderground v.1.15,2013-02-16 18:00:00,
2013-02-16 08:05:00,70.3,61.2,30.10,NE,49,9.0,14.0,73,0.00,,,0.10,Wunderground v.1.15,2013-02-16 18:05:00,
2013-02-16 08:15:00,70.2,61.9,30.10,NE,48,9.0,11.0,75,0.00,,,0.10,Wunderground v.1.15,2013-02-16 18:15:00,
2013-02-16 08:25:00,70.7,61.6,30.11,ENE,75,9.0,14.0,73,0.00,,,0.10,Wunderground v.1.15,2013-02-16 18:25:00,
2013-02-16 08:35:00,70.9,62.6,30.11,NE,37,9.0,11.0,75,0.00,,,0.10,Wunderground v.1.15,2013-02-16 18:35:00,
2013-02-16 08:45:00,70.6,61.5,30.11,ENE,57,7.0,10.0,73,0.00,,,0.10,Wunderground v.1.15,2013-02-16 18:45:00,
2013-02-16 08:55:00,70.9,61.8,30.11,ESE,106,8.0,11.0,73,0.00,,,0.10,Wunderground v.1.15,2013-02-16 18:55:00,
2013-02-16 09:05:00,71.3,61.8,30.11,ENE,69,8.0,12.0,72,0.00,,,0.10,Wunderground v.1.15,2013-02-16 19:05:00,
2013-02-16 09:15:00,72.0,62.5,30.11,ESE,115,9.0,12.0,72,0.00,,,0.10,Wunderground v.1.15,2013-02-16 19:15:00,
2013-02-16 09:25:00,72.4,62.5,30.11,ENE,71,7.0,9.0,71,0.00,,,0.10,Wunderground v.1.15,2013-02-16 19:25:00,
2013-02-16 09:35:00,72.6,63.1,30.11,East,93,7.0,13.0,72,0.00,,,0.10,Wunderground v.1.15,2013-02-16 19:35:00,
2013-02-16 09:45:00,73.0,63.0,30.12,ENE,65,8.0,12.0,71,0.00,,,0.10,Wunderground v.1.15,2013-02-16 19:45:00,
2013-02-16 09:55:00,71.9,62.0,30.11,ENE,57,8.0,11.0,71,0.00,,,0.10,Wunderground v.1.15,2013-02-16 19:55:00,
2013-02-16 10:00:00,71.8,63.1,30.12,NE,44,7.0,7.0,74,0.00,,,0.10,Wunderground v.1.15,2013-02-16 20:00:00,
2013-02-16 10:05:00,72.1,63.4,30.11,ENE,72,6.0,8.0,74,0.00,,,0.10,Wunderground v.1.15,2013-02-16 20:05:00,
2013-02-16 10:15:00,72.6,62.7,30.11,ENE,75,8.0,16.0,71,0.00,,,0.10,Wunderground v.1.15,2013-02-16 20:15:00,
2013-02-16 10:25:00,73.9,63.1,30.11,East,82,8.0,11.0,69,0.00,,,0.10,Wunderground v.1.15,2013-02-16 20:25:00,
2013-02-16 10:35:00,73.7,62.9,30.11,NE,44,8.0,13.0,69,0.00,,,0.10,Wunderground v.1.15,2013-02-16 20:35:00,
2013-02-16 10:45:00,73.4,63.4,30.11,ESE,109,8.0,10.0,71,0.00,,,0.10,Wunderground v.1.15,2013-02-16 20:45:00,
2013-02-16 10:55:00,74.1,62.4,30.10,ESE,105,8.0,10.0,67,0.00,,,0.10,Wunderground v.1.15,2013-02-16 20:55:00,
2013-02-16 11:05:00,74.7,63.0,30.10,ENE,78,8.0,8.0,67,0.00,,,0.10,Wunderground v.1.15,2013-02-16 21:05:00,
2013-02-16 11:15:00,74.5,63.2,30.10,NE,40,9.0,9.0,68,0.00,,,0.10,Wunderground v.1.15,2013-02-16 21:15:00,
2013-02-16 11:25:00,74.9,62.3,30.09,East,83,9.0,9.0,65,0.00,,,0.10,Wunderground v.1.15,2013-02-16 21:25:00,
2013-02-16 11:35:00,75.0,62.9,30.09,East,82,9.0,9.0,66,0.00,,,0.10,Wunderground v.1.15,2013-02-16 21:35:00,
2013-02-16 11:45:00,74.5,62.4,30.08,East,86,10.0,10.0,66,0.00,,,0.10,Wunderground v.1.15,2013-02-16 21:45:00,
2013-02-16 11:55:00,75.6,63.9,30.08,ENE,64,9.0,9.0,67,0.00,,,0.10,Wunderground v.1.15,2013-02-16 21:55:00,
2013-02-16 12:05:00,74.5,63.2,30.08,East,82,10.0,10.0,68,0.00,,,0.10,Wunderground v.1.15,2013-02-16 22:05:00,
2013-02-16 12:15:00,74.7,63.0,30.08,East,87,9.0,9.0,67,0.00,,,0.10,Wunderground v.1.15,2013-02-16 22:15:00,
2013-02-16 12:20:00,74.4,63.6,30.08,NE,48,9.0,9.0,69,0.00,,,0.10,Wunderground v.1.15,2013-02-16 22:20:00,
2013-02-16 12:30:00,73.9,63.1,30.07,NNE,32,10.0,10.0,69,0.00,,,0.10,Wunderground v.1.15,2013-02-16 22:30:00,
2013-02-16 12:40:00,73.9,63.1,30.07,ENE,61,8.0,12.0,69,0.00,,,0.10,Wunderground v.1.15,2013-02-16 22:40:00,
2013-02-16 12:50:00,74.4,63.1,30.07,East,94,8.0,8.0,68,0.00,,,0.10,Wunderground v.1.15,2013-02-16 22:50:00,
2013-02-16 13:00:00,73.6,62.0,30.06,ESE,118,9.0,9.0,67,0.00,,,0.10,Wunderground v.1.15,2013-02-16 23:00:00,
2013-02-16 13:05:00,74.1,62.4,30.06,East,89,8.0,9.0,67,0.00,,,0.10,Wunderground v.1.15,2013-02-16 23:05:00,
2013-02-16 13:15:00,74.8,63.5,30.06,NE,56,6.0,7.0,68,0.00,,,0.10,Wunderground v.1.15,2013-02-16 23:15:00,
2013-02-16 13:25:00,74.8,61.8,30.06,East,94,8.0,10.0,64,0.00,,,0.10,Wunderground v.1.15,2013-02-16 23:25:00,
2013-02-16 13:35:00,75.0,63.3,30.05,ESE,123,7.0,13.0,67,0.00,,,0.10,Wunderground v.1.15,2013-02-16 23:35:00,
2013-02-16 13:40:00,74.4,63.6,30.05,East,96,8.0,16.0,69,0.00,,,0.10,Wunderground v.1.15,2013-02-16 23:40:00,
2013-02-16 13:50:00,73.0,63.8,30.05,NE,38,9.0,13.0,73,0.00,,,0.10,Wunderground v.1.15,2013-02-16 23:50:00,
2013-02-16 14:00:00,72.8,63.6,30.04,East,88,7.0,11.0,73,0.00,,,0.10,Wunderground v.1.15,2013-02-17 00:00:00,
2013-02-16 14:05:00,71.7,65.9,30.04,East,99,7.0,11.0,82,0.00,,,0.10,Wunderground v.1.15,2013-02-17 00:05:00,
2013-02-16 14:15:00,71.4,64.5,30.04,ENE,64,6.0,10.0,79,0.00,,,0.11,Wunderground v.1.15,2013-02-17 00:15:00,
2013-02-16 14:25:00,72.2,65.0,30.03,NE,49,8.0,8.0,78,0.00,,,0.11,Wunderground v.1.15,2013-02-17 00:25:00,
2013-02-16 14:30:00,72.7,64.7,30.03,NE,53,8.0,8.0,76,0.00,,,0.11,Wunderground v.1.15,2013-02-17 00:30:00,
2013-02-16 14:40:00,73.5,64.7,30.03,NE,56,7.0,13.0,74,0.00,,,0.11,Wunderground v.1.15,2013-02-17 00:40:00,
2013-02-16 14:50:00,74.0,64.8,30.02,ENE,78,7.0,13.0,73,0.00,,,0.11,Wunderground v.1.15,2013-02-17 00:50:00,
2013-02-16 15:00:00,72.0,65.1,30.02,East,82,9.0,9.0,79,0.00,,,0.11,Wunderground v.1.15,2013-02-17 01:00:00,
2013-02-16 15:05:00,71.3,64.1,30.02,ESE,103,9.0,9.0,78,0.00,,,0.11,Wunderground v.1.15,2013-02-17 01:05:00,
2013-02-16 15:15:00,72.2,64.2,30.02,ENE,65,7.0,9.0,76,0.00,,,0.11,Wunderground v.1.15,2013-02-17 01:15:00,
2013-02-16 15:25:00,72.6,63.8,30.01,ENE,71,9.0,12.0,74,0.00,,,0.11,Wunderground v.1.15,2013-02-17 01:25:00,
2013-02-16 15:35:00,72.5,63.4,30.02,East,79,8.0,9.0,73,0.00,,,0.11,Wunderground v.1.15,2013-02-17 01:35:00,
2013-02-16 15:45:00,72.7,63.1,30.02,NNE,15,9.0,12.0,72,0.00,,,0.11,Wunderground v.1.15,2013-02-17 01:45:00,
2013-02-16 15:50:00,72.8,62.8,30.03,ENE,76,7.0,7.0,71,0.00,,,0.11,Wunderground v.1.15,2013-02-17 01:50:00,
2013-02-16 16:00:00,72.7,61.9,30.03,NNE,29,9.0,12.0,69,0.00,,,0.11,Wunderground v.1.15,2013-02-17 02:00:00,
2013-02-16 16:05:00,72.7,62.3,30.03,ENE,61,9.0,13.0,70,0.00,,,0.11,Wunderground v.1.15,2013-02-17 02:05:00,
2013-02-16 16:15:00,73.1,62.7,30.03,East,101,8.0,11.0,70,0.00,,,0.11,Wunderground v.1.15,2013-02-17 02:15:00,
2013-02-16 16:25:00,73.2,62.8,30.03,East,85,8.0,15.0,70,0.00,,,0.11,Wunderground v.1.15,2013-02-17 02:25:00,
2013-02-16 16:35:00,72.9,62.1,30.03,East,79,10.0,10.0,69,0.00,,,0.11,Wunderground v.1.15,2013-02-17 02:35:00,
2013-02-16 16:40:00,73.0,62.6,30.03,ENE,62,8.0,8.0,70,0.00,,,0.11,Wunderground v.1.15,2013-02-17 02:40:00,
2013-02-16 16:50:00,73.4,63.0,30.03,ENE,72,9.0,9.0,70,0.00,,,0.11,Wunderground v.1.15,2013-02-17 02:50:00,
2013-02-16 17:00:00,73.1,62.3,30.03,ENE,70,9.0,12.0,69,0.00,,,0.11,Wunderground v.1.15,2013-02-17 03:00:00,
2013-02-16 17:05:00,72.9,61.7,30.03,ESE,109,9.0,12.0,68,0.00,,,0.11,Wunderground v.1.15,2013-02-17 03:05:00,
2013-02-16 17:15:00,72.9,62.1,30.03,ENE,59,9.0,16.0,69,0.00,,,0.11,Wunderground v.1.15,2013-02-17 03:15:00,
2013-02-16 17:25:00,72.8,62.0,30.04,ENE,60,7.0,8.0,69,0.00,,,0.11,Wunderground v.1.15,2013-02-17 03:25:00,
2013-02-16 17:35:00,72.7,62.3,30.04,ENE,67,7.0,12.0,70,0.00,,,0.11,Wunderground v.1.15,2013-02-17 03:35:00,
2013-02-16 17:45:00,72.4,61.7,30.05,East,79,8.0,12.0,69,0.00,,,0.11,Wunderground v.1.15,2013-02-17 03:45:00,
2013-02-16 17:50:00,72.0,61.3,30.05,ENE,64,8.0,14.0,69,0.00,,,0.11,Wunderground v.1.15,2013-02-17 03:50:00,
2013-02-16 18:00:00,71.7,61.0,30.05,East,79,9.0,9.0,69,0.00,,,0.11,Wunderground v.1.15,2013-02-17 04:00:00,
2013-02-16 18:05:00,71.6,61.3,30.05,East,86,7.0,9.0,70,0.00,,,0.11,Wunderground v.1.15,2013-02-17 04:05:00,
2013-02-16 18:15:00,71.2,61.3,30.05,ENE,67,7.0,7.0,71,0.00,,,0.11,Wunderground v.1.15,2013-02-17 04:15:00,
2013-02-16 18:25:00,71.1,60.8,30.05,ENE,67,7.0,7.0,70,0.00,,,0.11,Wunderground v.1.15,2013-02-17 04:25:00,
2013-02-16 18:35:00,71.0,61.1,30.05,East,84,6.0,12.0,71,0.00,,,0.11,Wunderground v.1.15,2013-02-17 04:35:00,
2013-02-16 18:40:00,71.1,60.8,30.05,ENE,65,7.0,10.0,70,0.00,,,0.11,Wunderground v.1.15,2013-02-17 04:40:00,
2013-02-16 18:50:00,71.2,61.3,30.06,ENE,71,7.0,7.0,71,0.00,,,0.11,Wunderground v.1.15,2013-02-17 04:50:00,
2013-02-16 19:00:00,71.0,61.5,30.06,East,91,6.0,14.0,72,0.00,,,0.11,Wunderground v.1.15,2013-02-17 05:00:00,
2013-02-16 19:05:00,71.1,61.6,30.06,East,92,7.0,14.0,72,0.00,,,0.11,Wunderground v.1.15,2013-02-17 05:05:00,
2013-02-16 19:15:00,71.2,61.7,30.06,NE,48,9.0,9.0,72,0.00,,,0.11,Wunderground v.1.15,2013-02-17 05:15:00,
2013-02-16 19:20:00,71.3,61.8,30.06,East,94,9.0,9.0,72,0.00,,,0.11,Wunderground v.1.15,2013-02-17 05:20:00,
2013-02-16 19:30:00,71.2,61.3,30.07,NE,55,8.0,10.0,71,0.00,,,0.11,Wunderground v.1.15,2013-02-17 05:30:00,
2013-02-16 19:40:00,71.0,61.1,30.07,ENE,78,8.0,9.0,71,0.00,,,0.11,Wunderground v.1.15,2013-02-17 05:40:00,
2013-02-16 19:50:00,71.0,61.1,30.08,ENE,65,8.0,8.0,71,0.00,,,0.11,Wunderground v.1.15,2013-02-17 05:50:00,
2013-02-16 20:05:00,71.1,62.0,30.07,ENE,70,9.0,9.0,73,0.00,,,0.11,Wunderground v.1.15,2013-02-17 06:05:00,
2013-02-16 20:15:00,71.2,62.1,30.08,ENE,72,9.0,10.0,73,0.00,,,0.11,Wunderground v.1.15,2013-02-17 06:15:00,
2013-02-16 20:20:00,71.0,61.5,30.08,ESE,105,7.0,9.0,72,0.00,,,0.11,Wunderground v.1.15,2013-02-17 06:20:00,
2013-02-16 20:30:00,71.1,62.0,30.08,East,92,7.0,8.0,73,0.00,,,0.11,Wunderground v.1.15,2013-02-17 06:30:00,
2013-02-16 20:40:00,71.1,62.0,30.09,East,79,7.0,11.0,73,0.00,,,0.11,Wunderground v.1.15,2013-02-17 06:40:00,
2013-02-16 20:50:00,71.1,61.6,30.09,East,92,8.0,15.0,72,0.00,,,0.11,Wunderground v.1.15,2013-02-17 06:50:00,
2013-02-16 21:00:00,71.1,62.0,30.09,ENE,78,8.0,8.0,73,0.00,,,0.11,Wunderground v.1.15,2013-02-17 07:00:00,
2013-02-16 21:05:00,71.0,62.3,30.09,NE,52,7.0,8.0,74,0.00,,,0.11,Wunderground v.1.15,2013-02-17 07:05:00,
2013-02-16 21:15:00,71.0,62.3,30.09,NE,45,9.0,9.0,74,0.00,,,0.11,Wunderground v.1.15,2013-02-17 07:15:00,
2013-02-16 21:25:00,70.8,60.9,30.09,ENE,76,8.0,9.0,71,0.00,,,0.11,Wunderground v.1.15,2013-02-17 07:25:00,
2013-02-16 21:30:00,70.8,61.3,30.09,NE,53,8.0,8.0,72,0.00,,,0.11,Wunderground v.1.15,2013-02-17 07:30:00,
2013-02-16 21:40:00,70.4,62.5,30.10,East,80,9.0,12.0,76,0.00,,,0.11,Wunderground v.1.15,2013-02-17 07:40:00,
2013-02-16 21:50:00,68.1,60.6,30.10,NE,56,9.0,9.0,77,0.00,,,0.11,Wunderground v.1.15,2013-02-17 07:50:00,
2013-02-16 22:00:00,67.9,61.9,30.10,ENE,57,5.0,5.0,81,0.00,,,0.11,Wunderground v.1.15,2013-02-17 08:00:00,
2013-02-16 22:05:00,68.2,62.1,30.09,NE,55,5.0,10.0,81,0.00,,,0.11,Wunderground v.1.15,2013-02-17 08:05:00,
2013-02-16 22:15:00,69.5,62.0,30.09,ENE,78,7.0,10.0,77,0.00,,,0.11,Wunderground v.1.15,2013-02-17 08:15:00,
2013-02-16 22:20:00,70.1,62.2,30.10,ENE,74,8.0,11.0,76,0.00,,,0.11,Wunderground v.1.15,2013-02-17 08:20:00,
2013-02-16 22:30:00,70.1,62.2,30.10,East,94,7.0,9.0,76,0.00,,,0.11,Wunderground v.1.15,2013-02-17 08:30:00,
2013-02-16 22:40:00,70.3,62.7,30.10,ENE,67,6.0,9.0,77,0.00,,,0.11,Wunderground v.1.15,2013-02-17 08:40:00,
2013-02-16 22:50:00,70.7,62.4,30.11,ENE,75,9.0,11.0,75,0.00,,,0.11,Wunderground v.1.15,2013-02-17 08:50:00,
2013-02-16 22:55:00,70.8,62.9,30.11,East,94,9.0,11.0,76,0.00,,,0.11,Wunderground v.1.15,2013-02-17 08:55:00,
2013-02-16 23:05:00,68.5,61.7,30.11,ESE,105,8.0,8.0,79,0.00,,,0.11,Wunderground v.1.15,2013-02-17 09:05:00,
2013-02-16 23:15:00,67.9,61.5,30.11,East,96,6.0,7.0,80,0.00,,,0.11,Wunderground v.1.15,2013-02-17 09:15:00,
2013-02-16 23:25:00,68.6,60.7,30.11,NE,55,7.0,9.0,76,0.00,,,0.11,Wunderground v.1.15,2013-02-17 09:25:00,
2013-02-16 23:35:00,69.3,60.7,30.11,ESE,103,6.0,8.0,74,0.00,,,0.11,Wunderground v.1.15,2013-02-17 09:35:00,
2013-02-16 23:45:00,69.4,60.8,30.11,East,96,5.0,6.0,74,0.00,,,0.11,Wunderground v.1.15,2013-02-17 09:45:00,
2013-02-16 23:55:00,69.7,61.4,30.10,ENE,68,4.0,5.0,75,0.00,,,0.11,Wunderground v.1.15,2013-02-17 09:55:00,